Terminal Aerodrome Forecast
Issued by NWS

Home | Current Version | Previous Version | Text Only | Print | Product List | Glossary On
Versions: 1 2 3 4 5 6 7 8 9 10 11 12 13 14 15
000
FTUS44 KTSA 272300
TAFXNA
TAF
KXNA 272328Z 2800/2824 08012KT P6SM OVC100
     FM280900 07005KT 6SM -RA OVC050
     FM281700 03007KT P6SM BKN100=

USA.gov is the U.S. government's official web portal to all federal, state and local government web resources and services.